Time;durP1;ratioP1;P1;durP2;ratioP2;P2;SDS_P1;SDS_P2;PMS_P1;PMS_P2;Temp;Humidity;BMP_temperature;BMP_pressure;BME280_temperature;BME280_humidity;BME280_pressure;Samples;Min_cycle;Max_cycle;Signal;HPM_P1;HPM_P2
2021/06/15 00:00:22;;;;;;;7.87;6.07;;;20.50;99.90;;;;;;5091512;28;20434;-76
2021/06/15 00:02:50;;;;;;;9.40;6.43;;;20.50;99.90;;;;;;5083040;28;20561;-81
2021/06/15 00:05:18;;;;;;;6.70;5.27;;;20.50;99.90;;;;;;5081300;28;20505;-80
2021/06/15 00:07:46;;;;;;;7.77;5.43;;;20.50;99.90;;;;;;5088006;28;20469;-77
2021/06/15 00:10:17;;;;;;;9.03;6.13;;;20.50;99.90;;;;;;5088925;28;20441;-83
2021/06/15 00:12:44;;;;;;;8.47;6.30;;;20.50;99.90;;;;;;5113848;27;20943;-80
2021/06/15 00:15:13;;;;;;;10.97;6.80;;;20.40;99.90;;;;;;5110920;28;20454;-77
2021/06/15 00:17:40;;;;;;;11.30;6.30;;;20.40;99.90;;;;;;5105100;28;20458;-78
2021/06/15 00:20:10;;;;;;;10.67;5.87;;;20.40;99.90;;;;;;5098587;27;20494;-78
2021/06/15 00:22:37;;;;;;;7.70;6.47;;;20.40;1.00;;;;;;5096140;28;20447;-81
2021/06/15 00:25:04;;;;;;;6.60;6.00;;;20.30;1.00;;;;;;5104847;28;20485;-79
2021/06/15 00:27:31;;;;;;;11.47;6.70;;;20.30;1.00;;;;;;5112506;28;20470;-81
2021/06/15 00:29:59;;;;;;;9.87;6.47;;;20.30;1.00;;;;;;5111256;28;20464;-78
2021/06/15 00:32:26;;;;;;;6.90;5.70;;;20.30;1.00;;;;;;5112295;28;20530;-78
2021/06/15 00:34:53;;;;;;;7.70;6.07;;;20.20;1.00;;;;;;5110311;28;20446;-80
2021/06/15 00:37:21;;;;;;;10.30;6.67;;;20.20;1.00;;;;;;5105727;28;20792;-79
2021/06/15 00:39:49;;;;;;;9.90;6.33;;;20.20;1.00;;;;;;5112693;28;20435;-82
2021/06/15 00:42:16;;;;;;;9.43;6.70;;;20.20;1.00;;;;;;5109805;28;20454;-78
2021/06/15 00:44:43;;;;;;;8.67;6.60;;;20.10;1.00;;;;;;5111675;28;21034;-79
2021/06/15 00:47:10;;;;;;;7.47;6.30;;;20.10;11.00;;;;;;5106055;28;20483;-79
2021/06/15 00:49:38;;;;;;;11.97;7.37;;;20.10;28.10;;;;;;5104134;28;20426;-78
2021/06/15 00:52:07;;;;;;;9.10;6.13;;;20.10;66.80;;;;;;5106910;28;20435;-80
2021/06/15 00:54:35;;;;;;;9.60;6.63;;;20.10;77.60;;;;;;5112294;28;20431;-82
2021/06/15 00:57:03;;;;;;;11.83;6.70;;;20.10;99.90;;;;;;5111459;28;20786;-82
2021/06/15 00:59:30;;;;;;;7.27;6.50;;;20.10;99.90;;;;;;5099028;28;20427;-80
2021/06/15 01:01:57;;;;;;;9.20;7.00;;;20.00;99.90;;;;;;5094445;28;20544;-80
2021/06/15 01:04:25;;;;;;;8.30;6.30;;;20.00;99.90;;;;;;5105804;28;20490;-81
2021/06/15 01:07:03;;;;;;;10.90;7.90;;;20.00;99.90;;;;;;5109673;28;20816;-80
2021/06/15 01:09:37;;;;;;;7.93;6.03;;;20.00;99.90;;;;;;5109097;28;20477;-81
2021/06/15 01:12:17;;;;;;;7.00;6.40;;;20.00;99.90;;;;;;5094397;28;20431;-80
2021/06/15 01:14:55;;;;;;;7.90;6.10;;;19.90;99.90;;;;;;5104779;28;20456;-79
2021/06/15 01:17:30;;;;;;;7.50;5.83;;;19.90;99.90;;;;;;5101905;28;20485;-77
2021/06/15 01:20:12;;;;;;;9.23;6.80;;;19.90;99.90;;;;;;5108505;28;20481;-78
2021/06/15 01:23:03;;;;;;;6.90;5.90;;;19.90;99.90;;;;;;5092824;28;20455;-82
2021/06/15 01:25:38;;;;;;;7.67;6.53;;;19.90;99.90;;;;;;5110514;28;20482;-80
2021/06/15 01:28:12;;;;;;;9.30;6.60;;;19.80;99.90;;;;;;5109915;28;20512;-82
2021/06/15 01:30:49;;;;;;;9.53;6.53;;;19.80;99.90;;;;;;5093829;28;20450;-80
2021/06/15 01:33:18;;;;;;;7.43;6.50;;;19.80;1.00;;;;;;5104772;28;20450;-80
2021/06/15 01:35:47;;;;;;;8.50;6.63;;;19.70;1.00;;;;;;5099446;28;20456;-80
2021/06/15 01:38:18;;;;;;;9.60;6.50;;;19.70;1.00;;;;;;5109812;28;20910;-79
2021/06/15 01:40:55;;;;;;;6.70;6.00;;;19.60;1.00;;;;;;5110898;28;20449;-84
2021/06/15 01:43:26;;;;;;;6.93;6.33;;;19.60;1.00;;;;;;5098428;27;20466;-81
2021/06/15 01:45:56;;;;;;;7.57;6.77;;;19.60;1.00;;;;;;5102029;28;20462;-80
2021/06/15 01:48:32;;;;;;;7.13;6.23;;;19.50;1.00;;;;;;5091385;28;20454;-78
2021/06/15 01:50:59;;;;;;;8.43;6.90;;;19.50;1.00;;;;;;5091600;28;20451;-76
2021/06/15 01:53:27;;;;;;;8.30;6.87;;;19.40;43.80;;;;;;5120553;27;20789;-80
2021/06/15 01:55:57;;;;;;;9.53;7.10;;;19.40;99.90;;;;;;5101833;28;20813;-78
2021/06/15 01:58:29;;;;;;;13.90;7.20;;;19.40;99.90;;;;;;5106401;28;20460;-78
2021/06/15 02:00:57;;;;;;;10.90;7.40;;;19.30;99.90;;;;;;5109770;28;20437;-79
2021/06/15 02:03:26;;;;;;;9.83;7.53;;;19.30;99.90;;;;;;5098847;28;20434;-78
2021/06/15 02:05:55;;;;;;;9.43;7.63;;;19.20;99.90;;;;;;5104998;28;20578;-78
2021/06/15 02:08:27;;;;;;;12.73;8.00;;;19.20;99.90;;;;;;5099882;28;20428;-79
2021/06/15 02:10:55;;;;;;;7.73;7.03;;;19.10;1.00;;;;;;5106091;28;20791;-80
2021/06/15 02:13:24;;;;;;;8.60;7.77;;;19.10;1.00;;;;;;5101473;28;20421;-78
2021/06/15 02:15:51;;;;;;;8.50;7.70;;;19.00;1.00;;;;;;5111174;28;20454;-79
2021/06/15 02:18:21;;;;;;;10.40;7.50;;;19.00;1.00;;;;;;5101893;28;20920;-77
2021/06/15 02:20:50;;;;;;;8.53;7.60;;;19.00;1.00;;;;;;5097748;28;20464;-81
2021/06/15 02:23:20;;;;;;;8.97;8.07;;;18.90;1.00;;;;;;5113040;28;20461;-77
2021/06/15 02:25:51;;;;;;;9.57;8.03;;;18.90;20.70;;;;;;5113817;28;20493;-78
2021/06/15 02:28:19;;;;;;;8.73;7.93;;;18.80;96.30;;;;;;5111862;28;20436;-79
2021/06/15 02:30:47;;;;;;;8.27;7.50;;;18.80;99.90;;;;;;5112433;28;20416;-81
2021/06/15 02:33:18;;;;;;;9.47;8.10;;;18.80;99.90;;;;;;5100972;28;20453;-78
2021/06/15 02:35:49;;;;;;;9.00;8.13;;;18.70;99.90;;;;;;5106838;28;20451;-79
2021/06/15 02:38:24;;;;;;;11.40;8.63;;;18.70;99.90;;;;;;5111989;28;20423;-78
2021/06/15 02:40:52;;;;;;;11.27;9.00;;;18.70;99.90;;;;;;5108462;28;20454;-78
2021/06/15 02:43:23;;;;;;;15.20;9.83;;;18.60;99.90;;;;;;5112070;28;20448;-78
2021/06/15 02:45:54;;;;;;;12.50;9.83;;;18.60;99.90;;;;;;5111112;28;20467;-78
2021/06/15 02:48:26;;;;;;;12.13;9.20;;;18.60;99.90;;;;;;5113515;28;20441;-77
2021/06/15 02:50:54;;;;;;;11.07;9.93;;;18.60;99.90;;;;;;5106920;28;20840;-80
2021/06/15 02:53:26;;;;;;;10.33;9.23;;;18.60;99.90;;;;;;5103484;28;20431;-78
2021/06/15 02:55:58;;;;;;;10.27;8.70;;;18.60;99.90;;;;;;5106818;28;20428;-81
2021/06/15 02:58:26;;;;;;;13.23;9.80;;;18.50;99.90;;;;;;5111304;28;20436;-78
2021/06/15 03:00:55;;;;;;;10.77;9.67;;;18.50;99.90;;;;;;5114778;28;20543;-78
2021/06/15 03:03:22;;;;;;;13.23;9.17;;;18.50;99.90;;;;;;5113246;28;20444;-77
2021/06/15 03:05:49;;;;;;;11.50;8.93;;;18.50;99.90;;;;;;5098004;28;20984;-78
2021/06/15 03:08:17;;;;;;;14.33;9.27;;;18.50;99.90;;;;;;5116498;28;20418;-79
2021/06/15 03:10:44;;;;;;;11.17;9.87;;;18.50;99.90;;;;;;5116595;28;20440;-78
2021/06/15 03:13:15;;;;;;;13.53;9.83;;;18.40;99.90;;;;;;5117323;28;20403;-80
2021/06/15 03:15:43;;;;;;;10.80;9.20;;;18.40;99.90;;;;;;5104259;27;20816;-78
2021/06/15 03:18:21;;;;;;;11.03;9.83;;;18.40;99.90;;;;;;5110422;28;20438;-78
2021/06/15 03:20:50;;;;;;;13.40;11.00;;;18.40;99.90;;;;;;5106995;28;20828;-77
2021/06/15 03:23:28;;;;;;;12.20;9.60;;;18.30;99.90;;;;;;5108777;28;20805;-79
2021/06/15 03:25:58;;;;;;;14.37;11.50;;;18.30;99.90;;;;;;5114945;28;20467;-80
2021/06/15 03:28:27;;;;;;;11.43;10.23;;;18.30;99.90;;;;;;5110926;28;20519;-79
2021/06/15 03:30:55;;;;;;;13.13;11.50;;;18.30;99.90;;;;;;5111769;28;20803;-80
2021/06/15 03:33:24;;;;;;;11.53;10.33;;;18.30;99.90;;;;;;5116762;28;20799;-78
2021/06/15 03:35:55;;;;;;;14.53;12.43;;;18.30;99.90;;;;;;5104425;27;20439;-78
2021/06/15 03:38:25;;;;;;;13.30;10.70;;;18.20;99.90;;;;;;5109468;28;20423;-80
2021/06/15 03:40:53;;;;;;;15.83;11.70;;;18.20;99.90;;;;;;5109372;27;20430;-80
2021/06/15 03:43:21;;;;;;;13.70;12.27;;;18.20;99.90;;;;;;5101070;28;22206;-79
2021/06/15 03:45:51;;;;;;;17.57;13.03;;;18.20;99.90;;;;;;5097454;28;20463;-79
2021/06/15 03:48:20;;;;;;;15.83;11.20;;;18.20;99.90;;;;;;5099842;28;21018;-82
2021/06/15 03:50:52;;;;;;;16.20;11.47;;;18.20;99.90;;;;;;5107699;28;20423;-81
2021/06/15 03:53:22;;;;;;;13.40;11.77;;;18.30;99.90;;;;;;5115462;28;20468;-80
2021/06/15 03:55:51;;;;;;;15.83;12.30;;;18.20;99.90;;;;;;5107294;28;20462;-79
2021/06/15 03:58:20;;;;;;;13.40;11.57;;;18.20;99.90;;;;;;5109014;28;20480;-79
2021/06/15 04:00:50;;;;;;;14.73;12.70;;;18.30;99.90;;;;;;5110188;28;20413;-83
2021/06/15 04:03:18;;;;;;;14.27;11.60;;;18.30;99.90;;;;;;5104402;28;20474;-81
2021/06/15 04:05:48;;;;;;;14.57;13.00;;;18.30;99.90;;;;;;5112621;28;20469;-81
2021/06/15 04:08:16;;;;;;;15.60;13.90;;;18.30;99.90;;;;;;5112600;28;20496;-80
2021/06/15 04:10:45;;;;;;;15.10;13.43;;;18.30;99.90;;;;;;5100694;28;20442;-78
2021/06/15 04:13:13;;;;;;;14.90;11.60;;;18.30;99.90;;;;;;5108840;27;20447;-82
2021/06/15 04:15:42;;;;;;;17.60;14.73;;;18.40;99.90;;;;;;5110142;28;20452;-77
2021/06/15 04:18:09;;;;;;;16.17;13.70;;;18.40;99.90;;;;;;5097736;28;20458;-82
2021/06/15 04:20:40;;;;;;;23.03;14.60;;;18.40;99.90;;;;;;5095143;28;20573;-80
2021/06/15 04:23:10;;;;;;;20.37;14.93;;;18.50;99.90;;;;;;5110860;27;21026;-78
2021/06/15 04:25:39;;;;;;;18.63;13.70;;;18.50;99.90;;;;;;5095105;28;20493;-77
2021/06/15 04:28:07;;;;;;;22.83;17.97;;;18.50;99.90;;;;;;5111888;28;20520;-79
2021/06/15 04:30:35;;;;;;;27.50;17.80;;;18.60;99.90;;;;;;5113763;28;20438;-78
2021/06/15 04:33:06;;;;;;;17.60;14.73;;;18.60;99.90;;;;;;5099784;28;20449;-83
2021/06/15 04:35:37;;;;;;;17.70;14.37;;;18.70;99.90;;;;;;5108167;28;20474;-78
2021/06/15 04:38:10;;;;;;;15.50;13.60;;;18.70;99.90;;;;;;5114660;27;20944;-78
2021/06/15 04:40:40;;;;;;;19.30;15.13;;;18.80;99.90;;;;;;5106925;28;20569;-79
2021/06/15 04:43:21;;;;;;;17.83;13.30;;;18.80;99.90;;;;;;5112690;28;20507;-79
2021/06/15 04:45:50;;;;;;;18.70;15.00;;;18.90;99.90;;;;;;5100959;27;20482;-79
2021/06/15 04:48:24;;;;;;;17.57;14.67;;;18.90;99.90;;;;;;5102147;28;21761;-80
2021/06/15 04:50:52;;;;;;;14.33;12.83;;;19.00;99.90;;;;;;5113354;28;20783;-80
2021/06/15 04:53:21;;;;;;;18.10;14.00;;;19.10;99.90;;;;;;5110834;28;20994;-81
2021/06/15 04:55:49;;;;;;;16.97;15.10;;;19.10;99.90;;;;;;5097004;28;20573;-80
2021/06/15 04:58:18;;;;;;;20.20;16.07;;;19.20;99.90;;;;;;5103961;28;20451;-81
2021/06/15 05:00:46;;;;;;;18.73;13.97;;;19.30;99.90;;;;;;5115174;28;20435;-79
2021/06/15 05:03:13;;;;;;;22.17;17.87;;;19.40;99.90;;;;;;5101209;28;20457;-80
2021/06/15 05:05:41;;;;;;;15.80;13.97;;;19.40;99.90;;;;;;5099550;28;20483;-79
2021/06/15 05:08:14;;;;;;;22.07;17.57;;;19.50;99.90;;;;;;5112137;28;20439;-82
2021/06/15 05:10:43;;;;;;;23.60;17.80;;;19.60;99.90;;;;;;5105884;28;20537;-83
2021/06/15 05:13:11;;;;;;;21.23;16.10;;;19.70;99.90;;;;;;5112363;28;20446;-78
2021/06/15 05:15:42;;;;;;;15.90;14.13;;;19.80;99.90;;;;;;5111887;28;20994;-80
2021/06/15 05:18:10;;;;;;;18.50;14.30;;;19.90;99.90;;;;;;5110200;28;20545;-83
2021/06/15 05:20:39;;;;;;;29.23;17.57;;;19.90;99.90;;;;;;5112041;28;20470;-78
2021/06/15 05:23:09;;;;;;;23.90;16.20;;;20.00;99.90;;;;;;5103416;28;20473;-78
2021/06/15 05:25:36;;;;;;;19.93;14.10;;;20.20;99.90;;;;;;5101349;28;20482;-82
2021/06/15 05:28:05;;;;;;;19.00;15.23;;;20.20;99.90;;;;;;5109548;28;20422;-79
2021/06/15 05:30:32;;;;;;;14.70;12.33;;;20.40;99.90;;;;;;5104019;28;20896;-82
2021/06/15 05:32:59;;;;;;;13.30;11.90;;;20.50;99.90;;;;;;5109873;28;20450;-78
2021/06/15 05:35:26;;;;;;;21.53;15.37;;;20.70;99.90;;;;;;5112034;28;20438;-80
2021/06/15 05:37:53;;;;;;;17.60;12.97;;;21.00;99.90;;;;;;5102250;28;20451;-79
2021/06/15 05:40:20;;;;;;;19.50;13.50;;;21.20;99.90;;;;;;5108006;28;20423;-81
2021/06/15 05:42:47;;;;;;;15.00;12.10;;;21.50;99.90;;;;;;5110075;28;20533;-80
2021/06/15 05:45:16;;;;;;;14.20;12.10;;;21.70;99.90;;;;;;5120452;27;20978;-81
2021/06/15 05:47:44;;;;;;;16.00;13.00;;;21.90;99.90;;;;;;5096080;28;20512;-79
2021/06/15 05:50:14;;;;;;;19.83;13.97;;;22.10;99.90;;;;;;5096490;28;21054;-80
2021/06/15 05:52:44;;;;;;;15.47;12.60;;;22.30;99.90;;;;;;5106545;28;20443;-82
2021/06/15 05:55:12;;;;;;;20.63;13.13;;;22.40;99.90;;;;;;5096535;28;20442;-82
2021/06/15 05:57:39;;;;;;;14.33;10.67;;;22.60;99.90;;;;;;5097778;28;20458;-82
2021/06/15 06:00:08;;;;;;;14.30;11.97;;;22.60;99.90;;;;;;5101870;28;20475;-80
2021/06/15 06:02:36;;;;;;;14.03;10.37;;;22.80;99.90;;;;;;5106269;28;20508;-80
2021/06/15 06:10:25;;;;;;;18.70;11.47;;;23.20;99.90;;;;;;5106195;28;20931;-80
2021/06/15 06:12:52;;;;;;;14.50;11.77;;;23.30;99.90;;;;;;5097223;28;20804;-82
2021/06/15 06:15:19;;;;;;;13.30;11.90;;;23.40;99.90;;;;;;5111691;27;20446;-84
2021/06/15 06:17:48;;;;;;;13.50;10.47;;;23.40;99.90;;;;;;5108251;28;20543;-83
2021/06/15 06:20:16;;;;;;;12.83;11.30;;;23.60;99.90;;;;;;5106572;28;20481;-83
2021/06/15 06:22:44;;;;;;;15.70;10.60;;;23.70;99.90;;;;;;5105879;28;20430;-85
2021/06/15 06:25:13;;;;;;;19.33;12.60;;;23.80;99.90;;;;;;5104803;28;21027;-82
2021/06/15 06:27:41;;;;;;;17.40;11.60;;;23.90;99.90;;;;;;5098882;28;20515;-81
2021/06/15 06:30:09;;;;;;;14.40;11.93;;;24.10;99.90;;;;;;5108645;28;20880;-84
2021/06/15 06:32:37;;;;;;;12.07;9.33;;;24.20;99.90;;;;;;5106859;28;20469;-82
2021/06/15 06:35:06;;;;;;;16.23;12.57;;;24.40;99.90;;;;;;5108945;28;20533;-80
2021/06/15 06:37:35;;;;;;;14.17;11.70;;;24.70;99.90;;;;;;5105464;28;20489;-82
2021/06/15 06:40:06;;;;;;;17.03;13.77;;;25.00;99.90;;;;;;5112003;28;20446;-83
2021/06/15 06:42:33;;;;;;;15.30;11.00;;;25.30;99.90;;;;;;5115860;27;20447;-86
2021/06/15 06:45:00;;;;;;;15.57;11.73;;;25.70;99.90;;;;;;5104990;28;20990;-83
2021/06/15 06:47:27;;;;;;;13.70;11.20;;;26.10;99.90;;;;;;5103142;28;20842;-86
2021/06/15 06:49:54;;;;;;;11.43;9.77;;;26.50;99.90;;;;;;5117271;28;20434;-81
2021/06/15 06:52:22;;;;;;;10.10;8.57;;;26.90;99.90;;;;;;5114101;28;20446;-85
2021/06/15 06:54:49;;;;;;;10.57;9.57;;;27.30;99.90;;;;;;5107943;28;20533;-84
2021/06/15 06:57:16;;;;;;;14.20;11.13;;;27.70;99.90;;;;;;5108125;28;20474;-80
2021/06/15 06:59:43;;;;;;;12.13;10.37;;;28.20;98.60;;;;;;5107520;28;20489;-82
2021/06/15 07:02:10;;;;;;;14.20;8.40;;;28.70;11.80;;;;;;5115770;28;20438;-83
2021/06/15 07:04:37;;;;;;;14.07;11.70;;;29.20;1.00;;;;;;5103198;28;20458;-79
2021/06/15 07:07:04;;;;;;;10.70;8.63;;;29.60;1.00;;;;;;5105648;28;20935;-82
2021/06/15 07:09:32;;;;;;;13.90;10.00;;;30.10;1.00;;;;;;5114883;28;20458;-82
2021/06/15 07:11:59;;;;;;;11.47;9.17;;;30.60;1.00;;;;;;5103959;28;20923;-79
2021/06/15 07:14:26;;;;;;;10.27;8.43;;;31.10;1.00;;;;;;5108979;28;20446;-82
2021/06/15 07:16:53;;;;;;;11.00;9.43;;;31.50;99.90;;;;;;5114047;28;20458;-83
2021/06/15 07:19:20;;;;;;;11.07;7.70;;;31.90;99.90;;;;;;5111788;28;20478;-80
2021/06/15 07:21:47;;;;;;;8.10;7.30;;;32.30;99.90;;;;;;5105059;28;20936;-83
2021/06/15 07:24:13;;;;;;;14.80;8.33;;;32.70;99.90;;;;;;5115743;28;20465;-87
2021/06/15 07:26:42;;;;;;;15.60;10.40;;;33.10;99.90;;;;;;5111184;28;20482;-80
2021/06/15 07:29:09;;;;;;;10.20;8.77;;;33.60;91.90;;;;;;5106065;28;20443;-80
2021/06/15 07:31:36;;;;;;;8.93;8.07;;;33.90;1.00;;;;;;5095878;28;20816;-80
2021/06/15 07:34:03;;;;;;;9.43;7.87;;;34.30;1.00;;;;;;5104707;28;21224;-80
2021/06/15 07:36:30;;;;;;;8.17;7.33;;;34.60;1.00;;;;;;5104292;28;20975;-81
2021/06/15 07:38:56;;;;;;;11.90;10.70;;;34.90;1.00;;;;;;5103648;28;20454;-82
2021/06/15 07:41:23;;;;;;;10.43;7.50;;;35.20;1.00;;;;;;5111220;28;20449;-80
2021/06/15 07:43:52;;;;;;;9.33;7.67;;;35.50;99.90;;;;;;5108992;28;20864;-82
2021/06/15 07:46:19;;;;;;;10.90;7.93;;;35.70;99.90;;;;;;5109005;28;20498;-86
2021/06/15 07:48:46;;;;;;;10.90;9.27;;;36.10;99.90;;;;;;5103427;28;20430;-79
2021/06/15 07:51:13;;;;;;;9.53;8.20;;;36.30;99.90;;;;;;5113223;28;20435;-80
2021/06/15 07:53:40;;;;;;;9.70;8.00;;;36.50;61.50;;;;;;5103147;28;20473;-82
2021/06/15 07:56:07;;;;;;;8.20;7.40;;;36.70;1.00;;;;;;5115142;28;20477;-82
2021/06/15 07:58:35;;;;;;;9.93;7.90;;;36.80;1.00;;;;;;5102519;28;20450;-81
2021/06/15 08:01:03;;;;;;;10.70;7.80;;;36.70;1.00;;;;;;5110313;28;20454;-82
2021/06/15 08:03:30;;;;;;;12.20;9.40;;;36.70;99.90;;;;;;5114833;28;20518;-81
2021/06/15 08:05:57;;;;;;;10.10;7.03;;;36.90;99.90;;;;;;5102418;28;20482;-81
2021/06/15 08:08:25;;;;;;;7.20;6.50;;;37.10;99.90;;;;;;5104939;28;20457;-80
2021/06/15 08:10:52;;;;;;;8.53;6.67;;;37.20;99.90;;;;;;5113675;28;20518;-82
2021/06/15 08:13:19;;;;;;;11.93;7.57;;;37.30;84.30;;;;;;5104400;28;20451;-84
2021/06/15 08:15:49;;;;;;;8.30;6.40;;;37.30;1.00;;;;;;5106266;28;20481;-83
2021/06/15 08:18:18;;;;;;;9.80;6.20;;;37.60;1.00;;;;;;5110810;27;20538;-81
2021/06/15 08:20:45;;;;;;;6.60;5.87;;;37.70;1.00;;;;;;5101525;28;20474;-82
2021/06/15 08:23:13;;;;;;;7.47;5.20;;;37.90;1.00;;;;;;5107467;28;20981;-79
2021/06/15 08:25:40;;;;;;;8.57;6.00;;;38.10;1.00;;;;;;5113834;28;20546;-79
2021/06/15 08:28:08;;;;;;;10.80;7.90;;;38.20;1.00;;;;;;5103042;28;20562;-78
2021/06/15 08:30:35;;;;;;;8.23;5.33;;;38.20;99.90;;;;;;5096888;28;20458;-77
2021/06/15 08:33:02;;;;;;;6.27;4.83;;;38.30;99.90;;;;;;5106969;28;20920;-81
2021/06/15 08:35:31;;;;;;;7.60;5.87;;;38.50;99.90;;;;;;5104774;28;20460;-81
2021/06/15 08:37:58;;;;;;;7.03;4.20;;;38.50;99.90;;;;;;5104036;28;20445;-80
2021/06/15 08:40:25;;;;;;;8.23;4.40;;;38.50;99.90;;;;;;5117679;27;20446;-80
2021/06/15 08:42:53;;;;;;;9.60;7.00;;;38.50;31.20;;;;;;5103902;28;20443;-81
2021/06/15 08:45:20;;;;;;;6.97;5.70;;;38.50;1.00;;;;;;5110028;28;20455;-81
2021/06/15 08:47:49;;;;;;;5.33;4.77;;;38.50;1.00;;;;;;5099152;28;20477;-83
2021/06/15 08:50:18;;;;;;;6.20;4.47;;;38.50;1.00;;;;;;5112090;28;20936;-80
2021/06/15 08:52:48;;;;;;;6.10;5.47;;;38.60;1.00;;;;;;5109970;28;20871;-80
2021/06/15 08:55:19;;;;;;;8.37;5.93;;;38.60;1.00;;;;;;5106706;28;20442;-80
2021/06/15 08:57:55;;;;;;;8.57;5.70;;;38.50;1.00;;;;;;5110207;28;20450;-77
2021/06/15 09:00:22;;;;;;;8.03;4.57;;;38.50;1.00;;;;;;5098102;28;20451;-77
2021/06/15 09:02:52;;;;;;;4.97;4.47;;;38.60;99.90;;;;;;5106512;28;20450;-81
2021/06/15 09:05:19;;;;;;;6.67;4.37;;;38.70;99.90;;;;;;5093999;28;20471;-83
2021/06/15 09:08:03;;;;;;;5.63;4.67;;;38.50;99.90;;;;;;5104768;28;20493;-82
2021/06/15 09:10:33;;;;;;;5.13;4.10;;;38.50;99.90;;;;;;5093921;28;20447;-82
2021/06/15 09:13:00;;;;;;;5.20;4.70;;;38.30;99.90;;;;;;5104357;28;20439;-77
2021/06/15 09:15:28;;;;;;;6.17;4.60;;;38.00;99.90;;;;;;5095522;28;20785;-76
2021/06/15 09:17:55;;;;;;;5.03;4.33;;;38.00;99.90;;;;;;5108375;28;20976;-75
2021/06/15 09:20:26;;;;;;;8.43;4.90;;;37.70;99.90;;;;;;5109626;28;20479;-76
2021/06/15 09:23:04;;;;;;;9.77;5.97;;;37.70;65.60;;;;;;5100182;28;20445;-76
2021/06/15 09:25:32;;;;;;;8.30;5.47;;;37.60;21.70;;;;;;5112689;28;20541;-76
2021/06/15 09:28:01;;;;;;;6.60;4.80;;;37.20;1.00;;;;;;5111615;28;20573;-76
2021/06/15 09:30:31;;;;;;;5.83;4.30;;;36.80;1.00;;;;;;5096498;28;20454;-76
2021/06/15 09:33:11;;;;;;;5.63;4.83;;;36.10;1.00;;;;;;5100644;28;20443;-75
2021/06/15 09:35:38;;;;;;;6.50;5.27;;;35.30;1.00;;;;;;5107509;28;20829;-76
2021/06/15 09:38:07;;;;;;;5.30;4.77;;;34.90;1.00;;;;;;5105499;28;20453;-78
2021/06/15 09:40:49;;;;;;;5.43;4.03;;;34.50;1.00;;;;;;5112231;28;20450;-78
2021/06/15 09:43:16;;;;;;;7.10;4.87;;;34.00;1.00;;;;;;5106389;28;20982;-77
2021/06/15 09:45:45;;;;;;;9.40;5.53;;;33.60;1.00;;;;;;5107063;28;21235;-78
2021/06/15 09:48:28;;;;;;;5.63;4.90;;;33.30;1.00;;;;;;5094476;28;20471;-77
2021/06/15 09:50:59;;;;;;;5.30;4.70;;;32.70;1.00;;;;;;5090286;28;20446;-75
2021/06/15 09:53:30;;;;;;;6.50;5.17;;;32.40;1.00;;;;;;5107081;28;20466;-77
2021/06/15 09:55:59;;;;;;;6.83;4.63;;;32.10;1.00;;;;;;5086566;28;20831;-77
2021/06/15 09:58:42;;;;;;;6.83;4.63;;;31.80;1.00;;;;;;5109646;28;20935;-78
2021/06/15 10:01:09;;;;;;;5.57;4.63;;;31.50;1.00;;;;;;5093274;28;20904;-78
2021/06/15 10:03:36;;;;;;;6.87;4.90;;;31.10;1.00;;;;;;5093916;28;20474;-79
2021/06/15 10:06:05;;;;;;;7.87;4.63;;;30.90;1.00;;;;;;5087379;28;20470;-78
2021/06/15 10:08:48;;;;;;;5.60;4.30;;;30.70;1.00;;;;;;5111581;28;20438;-78
2021/06/15 10:11:17;;;;;;;4.80;4.20;;;30.50;1.00;;;;;;5099146;28;20422;-78
2021/06/15 10:13:45;;;;;;;8.90;4.97;;;30.40;1.00;;;;;;5093897;28;21754;-77
2021/06/15 10:16:14;;;;;;;5.50;4.70;;;30.20;1.00;;;;;;5102430;28;20469;-77
2021/06/15 10:18:41;;;;;;;7.83;4.80;;;30.00;1.00;;;;;;5109117;28;20446;-78
2021/06/15 10:21:08;;;;;;;5.50;4.03;;;30.00;1.00;;;;;;5109275;28;20498;-78
2021/06/15 10:23:35;;;;;;;3.87;3.37;;;29.80;1.00;;;;;;5109772;28;20423;-78
2021/06/15 10:26:06;;;;;;;7.00;4.13;;;29.70;1.00;;;;;;5113911;28;20447;-77
2021/06/15 10:28:33;;;;;;;3.97;3.50;;;29.60;1.00;;;;;;5098116;28;20566;-79
2021/06/15 10:31:02;;;;;;;6.77;4.10;;;29.50;1.00;;;;;;5112271;28;20545;-80
2021/06/15 10:33:41;;;;;;;6.00;5.00;;;29.40;1.00;;;;;;5111807;28;20911;-80
2021/06/15 10:36:43;;;;;;;6.33;4.50;;;29.30;1.00;;;;;;5099083;28;20482;-80
2021/06/15 10:39:19;;;;;;;4.30;3.40;;;29.10;1.00;;;;;;5085177;28;20465;-79
2021/06/15 10:41:47;;;;;;;8.13;4.50;;;29.10;1.00;;;;;;5104870;28;20489;-79
2021/06/15 10:44:15;;;;;;;4.67;4.23;;;29.00;1.00;;;;;;5108033;28;20470;-81
2021/06/15 10:46:44;;;;;;;7.17;4.27;;;28.90;1.00;;;;;;5105188;28;20488;-79
2021/06/15 10:49:13;;;;;;;4.73;4.20;;;28.90;1.00;;;;;;5106871;28;20792;-80
2021/06/15 10:51:44;;;;;;;5.87;4.60;;;28.80;1.00;;;;;;5104253;28;20438;-79
2021/06/15 10:54:29;;;;;;;13.87;5.50;;;28.70;1.00;;;;;;5087182;28;20491;-80
2021/06/15 10:57:21;;;;;;;5.53;4.77;;;28.70;1.00;;;;;;5098406;28;20498;-80
2021/06/15 11:00:05;;;;;;;6.83;4.80;;;28.50;15.80;;;;;;5086170;28;20485;-79
2021/06/15 11:02:33;;;;;;;6.37;3.90;;;28.40;32.60;;;;;;5086286;28;20462;-80
2021/06/15 11:05:20;;;;;;;6.83;4.90;;;28.40;63.40;;;;;;5105333;28;20430;-79
2021/06/15 11:07:47;;;;;;;6.07;4.43;;;28.40;40.20;;;;;;5103508;28;20482;-81
2021/06/15 11:10:14;;;;;;;8.03;5.20;;;28.30;64.10;;;;;;5106936;28;20458;-82
2021/06/15 11:12:49;;;;;;;7.00;4.30;;;28.30;58.80;;;;;;5102712;28;20458;-79
2021/06/15 11:15:22;;;;;;;6.80;5.03;;;28.20;99.90;;;;;;5087790;28;20452;-81
2021/06/15 11:17:53;;;;;;;5.57;4.80;;;28.10;75.20;;;;;;5105902;28;20978;-81
2021/06/15 11:20:31;;;;;;;8.40;4.53;;;28.00;70.30;;;;;;5089262;28;20490;-80
2021/06/15 11:23:15;;;;;;;4.83;3.83;;;28.00;99.90;;;;;;5108435;28;20504;-81
2021/06/15 11:25:48;;;;;;;4.00;3.33;;;28.00;99.90;;;;;;5104122;28;20484;-79
2021/06/15 11:28:45;;;;;;;7.03;4.17;;;28.00;99.90;;;;;;5095186;28;20518;-79
2021/06/15 11:31:31;;;;;;;6.43;3.60;;;28.00;99.90;;;;;;5101058;28;20473;-81
2021/06/15 11:34:15;;;;;;;4.77;3.40;;;27.90;99.90;;;;;;5107117;28;20449;-83
2021/06/15 11:36:44;;;;;;;6.07;3.80;;;27.90;99.90;;;;;;5107798;28;20545;-79
2021/06/15 11:39:27;;;;;;;4.80;3.67;;;27.90;79.50;;;;;;5107314;28;21002;-78
2021/06/15 11:42:16;;;;;;;4.43;3.30;;;27.90;90.10;;;;;;5103347;28;20935;-79
2021/06/15 11:45:04;;;;;;;5.17;3.63;;;27.90;56.00;;;;;;5094680;28;20458;-79
2021/06/15 11:47:38;;;;;;;3.70;3.40;;;27.90;70.60;;;;;;5099890;28;20586;-79
2021/06/15 11:50:10;;;;;;;3.30;2.90;;;27.90;79.70;;;;;;5112326;28;20437;-79
2021/06/15 11:52:39;;;;;;;5.90;3.00;;;27.90;49.20;;;;;;5095206;28;20830;-78
2021/06/15 11:55:08;;;;;;;4.10;2.90;;;27.90;14.00;;;;;;5105423;28;20453;-80
2021/06/15 11:57:35;;;;;;;4.40;2.70;;;27.90;29.40;;;;;;5114738;28;20458;-79
2021/06/15 12:00:02;;;;;;;3.50;3.00;;;27.90;17.80;;;;;;5111036;28;20458;-80
2021/06/15 12:02:31;;;;;;;6.77;2.70;;;27.70;1.00;;;;;;5116350;28;20815;-79
2021/06/15 12:05:15;;;;;;;4.33;3.10;;;27.70;3.20;;;;;;5116342;28;20449;-79
2021/06/15 12:07:43;;;;;;;4.80;3.20;;;27.80;1.00;;;;;;5100037;28;20967;-79
2021/06/15 12:10:12;;;;;;;4.50;2.97;;;27.70;1.00;;;;;;5112987;27;20455;-79
2021/06/15 12:12:57;;;;;;;4.97;3.07;;;27.70;1.00;;;;;;5110799;28;20923;-79
2021/06/15 12:15:26;;;;;;;4.07;3.30;;;27.80;1.00;;;;;;5114418;28;20507;-79
2021/06/15 12:17:53;;;;;;;2.90;2.60;;;27.80;1.00;;;;;;5112738;28;20463;-79
2021/06/15 12:20:25;;;;;;;4.77;3.10;;;27.80;1.00;;;;;;5113215;28;20495;-79
2021/06/15 12:22:52;;;;;;;3.73;3.13;;;27.80;1.00;;;;;;5111752;28;20454;-79
2021/06/15 12:25:19;;;;;;;5.40;3.10;;;27.80;1.00;;;;;;5115997;28;20438;-79
2021/06/15 12:27:46;;;;;;;3.10;2.80;;;27.80;1.00;;;;;;5115848;28;20492;-79
2021/06/15 12:30:17;;;;;;;4.60;3.73;;;27.90;1.00;;;;;;5100621;28;20455;-80
2021/06/15 12:32:45;;;;;;;4.27;3.30;;;27.80;1.00;;;;;;5111989;28;20789;-79
2021/06/15 12:35:18;;;;;;;3.60;3.03;;;27.90;1.00;;;;;;5105180;28;20451;-79
2021/06/15 12:37:46;;;;;;;4.07;3.30;;;27.80;1.00;;;;;;5113577;28;20806;-79
2021/06/15 12:40:15;;;;;;;5.23;3.37;;;27.60;1.00;;;;;;5110095;28;20458;-79
2021/06/15 12:42:42;;;;;;;4.13;2.80;;;27.60;1.00;;;;;;5111208;28;20445;-79
2021/06/15 12:45:10;;;;;;;3.73;2.70;;;27.70;1.00;;;;;;5114329;28;20454;-79
2021/06/15 12:47:44;;;;;;;3.67;2.83;;;27.60;1.00;;;;;;5113709;28;20489;-79
2021/06/15 12:50:21;;;;;;;3.90;2.87;;;27.60;1.00;;;;;;5114328;28;20478;-79
2021/06/15 12:52:50;;;;;;;6.47;3.03;;;27.60;1.00;;;;;;5110073;27;20536;-79
2021/06/15 12:55:18;;;;;;;5.80;3.70;;;27.50;1.00;;;;;;5111103;28;20435;-79
2021/06/15 12:57:57;;;;;;;4.77;3.23;;;27.40;1.00;;;;;;5104508;28;20463;-79
2021/06/15 13:00:24;;;;;;;5.43;3.37;;;27.40;1.00;;;;;;5101559;28;20568;-80
2021/06/15 13:02:51;;;;;;;4.47;2.50;;;27.40;1.00;;;;;;5107865;28;20460;-79